Terminal Aerodrome Forecast
Issued by NWS Memphis, TN

Home | Current Version | Previous Version | Text Only | Print | Product List | Glossary On
Versions: 1 2 3 4 5 6 7 8 9 10 11 12 13
164
FTUS44 KMEG 261211 AAA
TAFMKL
TAF AMD
KMKL 261211Z 2612/2712 35011G20KT P6SM VCSH SCT015 BKN050 OVC100
      TEMPO 2612/2616 BKN015
     FM262000 02009KT P6SM SCT050 BKN100
     FM270100 02003KT P6SM SKC
      AMD NOT SKED=

USA.gov is the U.S. government's official web portal to all federal, state and local government web resources and services.